Time;durP1;ratioP1;P1;durP2;ratioP2;P2;SDS_P1;SDS_P2;PMS_P1;PMS_P2;Temp;Humidity;BMP_temperature;BMP_pressure;BME280_temperature;BME280_humidity;BME280_pressure;Samples;Min_cycle;Max_cycle;Signal;HPM_P1;HPM_P2
2023/07/19 00:00:16;;;;;;;3.95;1.58;;;;;;;22.19;43.57;99984.56;10383204;28;20287;-73
2023/07/19 00:05:18;;;;;;;2.25;1.10;;;;;;;22.12;43.47;99983.97;10386435;28;20053;-74
2023/07/19 00:10:19;;;;;;;6.68;2.20;;;;;;;22.01;43.86;99987.72;10382154;28;20061;-74
2023/07/19 00:15:21;;;;;;;2.95;0.70;;;;;;;21.88;43.95;100003.47;10381287;28;20134;-74
2023/07/19 00:20:22;;;;;;;5.20;1.00;;;;;;;21.78;44.25;99998.75;10385806;28;20060;-74
2023/07/19 00:25:24;;;;;;;3.35;0.75;;;;;;;21.67;44.91;100001.63;10396922;28;20046;-75
2023/07/19 00:30:25;;;;;;;5.55;1.25;;;;;;;21.55;45.14;100001.78;10386144;28;20155;-75
2023/07/19 00:35:26;;;;;;;1.30;0.80;;;;;;;21.49;45.25;99992.69;10388364;28;20105;-75
2023/07/19 00:40:32;;;;;;;1.98;0.82;;;;;;;21.30;45.22;99981.22;10397986;28;20092;-75
2023/07/19 00:45:33;;;;;;;3.30;0.80;;;;;;;21.20;45.19;99986.59;10392753;28;20102;-75
2023/07/19 00:50:35;;;;;;;2.08;0.82;;;;;;;20.97;45.83;99980.31;10394424;28;20042;-73
2023/07/19 00:55:37;;;;;;;2.20;1.25;;;;;;;20.90;45.98;99976.94;10386540;28;20116;-73
2023/07/19 01:00:39;;;;;;;3.70;1.00;;;;;;;20.93;46.42;99991.97;10389795;28;20038;-73
2023/07/19 01:05:40;;;;;;;2.35;1.00;;;;;;;20.93;46.47;99983.78;10386293;28;20406;-72
2023/07/19 01:10:42;;;;;;;2.78;1.42;;;;;;;20.87;45.96;99977.41;10387794;28;20045;-73
2023/07/19 01:15:43;;;;;;;4.72;0.80;;;;;;;20.78;46.36;99981.69;10385104;28;20330;-73
2023/07/19 01:20:45;;;;;;;2.33;1.00;;;;;;;20.77;46.51;99983.59;10409288;28;20119;-72
2023/07/19 01:25:47;;;;;;;3.20;0.77;;;;;;;20.73;46.64;99976.16;10423519;28;20045;-72
2023/07/19 01:30:48;;;;;;;3.10;0.90;;;;;;;20.68;46.75;99982.38;10391455;28;20246;-73
2023/07/19 01:35:50;;;;;;;1.80;0.80;;;;;;;20.64;46.90;99985.88;10420122;28;20057;-72
2023/07/19 01:40:51;;;;;;;2.70;0.73;;;;;;;20.53;47.43;99980.22;10386010;28;20046;-71
2023/07/19 01:45:53;;;;;;;3.58;0.90;;;;;;;20.45;47.58;99977.09;10381395;28;20042;-72
2023/07/19 01:50:54;;;;;;;2.13;1.05;;;;;;;20.41;47.73;99974.84;10408905;28;20057;-73
2023/07/19 01:55:56;;;;;;;2.92;0.80;;;;;;;20.33;47.95;99975.28;10384493;28;20141;-75
2023/07/19 02:00:57;;;;;;;2.42;0.90;;;;;;;20.25;48.15;99970.25;10391825;28;20053;-73
2023/07/19 02:06:00;;;;;;;3.70;1.15;;;;;;;20.17;48.46;99965.22;10384774;28;20054;-74
2023/07/19 02:11:01;;;;;;;1.98;0.68;;;;;;;20.05;48.72;99954.38;10382558;28;20133;-72
2023/07/19 02:16:03;;;;;;;3.25;1.38;;;;;;;19.93;48.78;99949.00;10386636;28;20042;-72
2023/07/19 02:21:04;;;;;;;3.17;1.20;;;;;;;19.81;48.95;99959.16;10383532;28;20050;-73
2023/07/19 02:26:06;;;;;;;2.47;0.90;;;;;;;19.73;48.95;99954.94;10384094;28;20049;-73
2023/07/19 02:31:07;;;;;;;4.28;1.70;;;;;;;19.69;49.45;99956.47;10381428;28;20095;-74
2023/07/19 02:36:10;;;;;;;1.48;0.70;;;;;;;19.58;49.23;99949.19;10388123;28;20266;-72
2023/07/19 02:41:12;;;;;;;4.60;0.90;;;;;;;19.44;49.63;99951.38;10380634;28;20490;-73
2023/07/19 02:46:13;;;;;;;8.13;2.50;;;;;;;19.21;50.06;99955.88;10385002;28;20131;-72
2023/07/19 02:51:15;;;;;;;3.63;1.13;;;;;;;19.19;50.12;99960.75;10384718;28;20133;-72
2023/07/19 02:56:16;;;;;;;5.43;1.17;;;;;;;19.20;50.01;99958.84;10386381;28;20301;-73
2023/07/19 03:01:17;;;;;;;4.68;1.20;;;;;;;19.19;50.05;99974.38;10377957;28;20133;-74
2023/07/19 03:06:19;;;;;;;4.78;1.15;;;;;;;19.11;50.27;99966.56;10382209;28;20053;-75
2023/07/19 03:11:21;;;;;;;4.05;0.80;;;;;;;19.02;50.57;99970.75;10374532;28;20051;-75
2023/07/19 03:16:23;;;;;;;3.08;1.10;;;;;;;18.97;50.52;99990.50;10391535;28;20061;-72
2023/07/19 03:21:24;;;;;;;3.53;1.55;;;;;;;18.96;50.63;99983.44;10406755;23;20058;-61
2023/07/19 03:26:26;;;;;;;2.20;1.10;;;;;;;18.90;50.85;99978.94;10358057;28;20052;-61
2023/07/19 03:31:27;;;;;;;2.00;1.05;;;;;;;18.85;50.94;99978.81;10379512;28;20050;-60
2023/07/19 03:36:28;;;;;;;4.30;1.50;;;;;;;18.81;51.08;99994.00;10363893;28;20044;-65
2023/07/19 03:41:30;;;;;;;2.45;1.10;;;;;;;18.61;51.54;100005.22;10362098;28;20038;-66
2023/07/19 03:46:32;;;;;;;3.63;1.33;;;;;;;18.58;51.58;99997.53;10362246;28;20080;-65
2023/07/19 03:51:33;;;;;;;4.72;1.25;;;;;;;18.60;51.59;100001.69;10365589;28;20754;-64
2023/07/19 03:56:35;;;;;;;4.40;1.30;;;;;;;18.56;51.70;100010.53;10369414;28;20160;-63
2023/07/19 04:01:37;;;;;;;5.78;1.02;;;;;;;18.55;51.69;100014.34;10365592;28;20493;-64
2023/07/19 04:06:38;;;;;;;6.18;1.20;;;;;;;18.55;51.72;100009.72;10363717;28;20042;-64
2023/07/19 04:11:40;;;;;;;5.15;1.17;;;;;;;18.45;51.93;100014.94;10367907;28;20061;-64
2023/07/19 04:16:41;;;;;;;7.85;1.98;;;;;;;18.41;52.04;100014.56;10366295;28;20040;-64
2023/07/19 04:21:43;;;;;;;4.95;1.13;;;;;;;18.44;51.89;100010.53;10363006;28;20046;-64
2023/07/19 04:26:44;;;;;;;3.75;1.50;;;;;;;18.46;52.11;100016.56;10361796;28;20710;-66
2023/07/19 04:31:46;;;;;;;4.70;1.00;;;;;;;18.49;52.13;100016.13;10366717;28;20046;-65
2023/07/19 04:36:48;;;;;;;6.45;1.55;;;;;;;18.55;52.19;100015.16;10362049;28;20042;-65
2023/07/19 04:41:49;;;;;;;5.13;2.45;;;;;;;18.64;51.94;100018.34;10361864;28;20061;-64
2023/07/19 04:46:50;;;;;;;5.28;1.27;;;;;;;18.72;51.96;100023.47;10363571;28;20057;-65
2023/07/19 04:51:52;;;;;;;3.08;1.10;;;;;;;18.79;51.85;100015.16;10370617;28;20038;-64
2023/07/19 04:56:53;;;;;;;2.85;1.00;;;;;;;18.87;51.67;100020.25;10443180;28;20045;-65
2023/07/19 05:01:55;;;;;;;3.83;1.33;;;;;;;19.00;51.72;100014.56;10465238;28;20063;-63
2023/07/19 05:06:56;;;;;;;2.35;0.90;;;;;;;19.12;51.63;100009.09;10463361;28;20849;-63
2023/07/19 05:11:58;;;;;;;3.92;1.10;;;;;;;19.22;51.88;100006.56;10457177;28;20048;-63
2023/07/19 05:16:59;;;;;;;2.47;1.20;;;;;;;19.31;51.83;100011.63;10477983;28;20055;-62
2023/07/19 05:22:01;;;;;;;5.03;1.17;;;;;;;19.46;51.72;100011.13;10490876;28;20033;-63
2023/07/19 05:27:03;;;;;;;3.88;0.98;;;;;;;19.56;51.45;100009.41;10494262;28;20093;-63
2023/07/19 05:32:05;;;;;;;2.42;1.20;;;;;;;19.69;51.59;100013.75;10492365;28;20025;-62
2023/07/19 05:37:06;;;;;;;4.75;1.13;;;;;;;19.87;50.99;100023.66;10478604;28;20128;-63
2023/07/19 05:42:07;;;;;;;2.75;1.02;;;;;;;20.04;50.65;100022.84;10479374;28;20068;-62
2023/07/19 05:47:09;;;;;;;7.25;1.60;;;;;;;20.19;50.76;100020.38;10456890;28;20059;-63
2023/07/19 05:52:12;;;;;;;5.78;1.48;;;;;;;20.31;50.42;100020.28;10463295;28;20037;-64
2023/07/19 05:57:13;;;;;;;7.65;1.60;;;;;;;20.52;49.82;100025.00;10460265;28;20055;-62
2023/07/19 06:02:14;;;;;;;3.60;1.00;;;;;;;20.68;49.67;100033.47;10458616;28;20091;-63
2023/07/19 06:07:16;;;;;;;3.35;0.90;;;;;;;20.68;49.56;100026.06;10463351;28;20059;-63
2023/07/19 06:12:17;;;;;;;4.28;1.10;;;;;;;20.80;48.90;100026.78;10463531;28;20047;-64
2023/07/19 06:17:19;;;;;;;4.80;1.27;;;;;;;20.85;48.86;100027.94;10462986;28;20068;-63
2023/07/19 06:22:20;;;;;;;4.43;1.10;;;;;;;20.79;48.77;100033.34;10465896;28;20101;-64
2023/07/19 06:27:22;;;;;;;1.15;0.60;;;;;;;21.06;48.05;100029.06;10489895;28;20117;-64
2023/07/19 06:32:23;;;;;;;3.28;1.25;;;;;;;21.36;47.74;100029.41;10500361;28;20037;-63
2023/07/19 06:37:25;;;;;;;3.25;0.82;;;;;;;21.56;47.11;100031.63;10494332;28;20048;-64
2023/07/19 06:42:26;;;;;;;2.88;1.00;;;;;;;21.68;47.15;100028.75;10493047;28;20480;-64
2023/07/19 06:47:29;;;;;;;5.40;1.10;;;;;;;21.86;46.26;100030.28;10491892;28;20039;-63
2023/07/19 06:52:30;;;;;;;2.13;0.63;;;;;;;22.07;46.15;100023.06;10496099;28;20321;-64
2023/07/19 06:57:31;;;;;;;4.28;0.80;;;;;;;22.28;46.14;100026.03;10493648;28;20112;-63
2023/07/19 07:02:33;;;;;;;2.58;1.05;;;;;;;22.50;45.60;100026.72;10489949;28;20041;-63
2023/07/19 07:07:34;;;;;;;3.88;0.80;;;;;;;22.71;44.95;100029.59;10497917;28;20056;-62
2023/07/19 07:12:36;;;;;;;4.07;0.65;;;;;;;22.95;44.49;100035.50;10485378;28;20041;-62
2023/07/19 07:17:38;;;;;;;1.85;0.60;;;;;;;23.10;43.84;100037.53;10465304;28;20044;-62
2023/07/19 07:22:41;;;;;;;5.88;0.65;;;;;;;23.28;43.63;100036.22;10466516;28;20067;-64
2023/07/19 07:27:42;;;;;;;1.80;0.98;;;;;;;23.44;43.28;100029.72;10468102;28;20059;-62
2023/07/19 07:32:44;;;;;;;2.67;1.35;;;;;;;23.69;42.81;100025.38;10460453;28;20504;-63
2023/07/19 07:37:47;;;;;;;4.03;0.88;;;;;;;23.77;42.33;100016.63;10460651;28;20086;-63
2023/07/19 07:42:48;;;;;;;4.20;1.10;;;;;;;24.08;41.80;100016.69;10465358;28;20069;-62
2023/07/19 07:47:49;;;;;;;3.65;0.60;;;;;;;24.31;40.99;100007.09;10464841;28;20045;-62
2023/07/19 07:52:51;;;;;;;6.55;0.80;;;;;;;24.45;40.86;100007.34;10463616;28;20045;-62
2023/07/19 07:58:13;;;;;;;3.03;0.80;;;;;;;24.60;40.42;100001.84;10461470;28;20072;-62
2023/07/19 08:03:14;;;;;;;5.85;0.93;;;;;;;24.73;40.08;100000.44;10465188;28;20057;-63
2023/07/19 08:08:16;;;;;;;6.15;0.90;;;;;;;24.98;39.78;99995.97;10458576;28;20680;-63
2023/07/19 08:13:17;;;;;;;4.90;0.82;;;;;;;25.05;39.78;99983.56;10459786;28;20128;-62
2023/07/19 08:18:19;;;;;;;2.40;1.00;;;;;;;25.24;39.02;99978.28;10457338;28;20045;-62
2023/07/19 08:23:20;;;;;;;6.10;0.90;;;;;;;25.32;39.24;99968.63;10464906;28;20052;-62
2023/07/19 08:28:24;;;;;;;5.95;1.17;;;;;;;25.75;38.95;99952.38;10463430;28;20075;-63
2023/07/19 08:33:28;;;;;;;6.38;1.20;;;;;;;25.89;38.63;99958.88;10468059;28;20620;-62
2023/07/19 08:38:29;;;;;;;4.95;0.88;;;;;;;26.12;38.28;99946.28;10470308;28;20052;-62
2023/07/19 08:43:34;;;;;;;3.22;1.00;;;;;;;26.42;37.64;99944.38;10470793;28;20137;-62
2023/07/19 08:48:36;;;;;;;2.28;0.90;;;;;;;26.67;37.33;99929.47;10465473;28;20060;-63
2023/07/19 08:53:38;;;;;;;6.18;1.33;;;;;;;26.87;36.88;99928.41;10465267;28;20048;-62
2023/07/19 08:58:43;;;;;;;3.50;0.85;;;;;;;27.05;36.68;99913.03;10470333;28;20051;-62
2023/07/19 09:03:44;;;;;;;5.07;1.02;;;;;;;27.46;36.25;99909.69;10467204;28;20447;-62
2023/07/19 09:08:46;;;;;;;4.28;1.00;;;;;;;27.67;35.44;99912.13;10467462;28;20040;-63
2023/07/19 09:13:53;;;;;;;5.00;0.75;;;;;;;28.06;35.27;99910.94;10483089;28;20052;-63
2023/07/19 09:18:57;;;;;;;5.32;0.88;;;;;;;28.65;34.81;99906.53;10513638;22;20287;-75
2023/07/19 09:24:03;;;;;;;3.08;0.90;;;;;;;28.96;34.01;99900.34;10505898;28;20742;-74
2023/07/19 09:29:04;;;;;;;2.30;0.80;;;;;;;29.52;33.76;99892.72;10503860;28;20103;-74
2023/07/19 09:34:07;;;;;;;2.72;0.70;;;;;;;29.57;32.18;99897.31;10506623;28;20112;-75
2023/07/19 09:39:08;;;;;;;1.80;0.60;;;;;;;29.64;31.25;99884.66;10502894;28;20051;-75
2023/07/19 09:44:10;;;;;;;2.25;1.15;;;;;;;29.90;31.07;99883.22;10501862;28;20218;-73
2023/07/19 09:49:12;;;;;;;2.17;0.50;;;;;;;30.18;30.13;99884.69;10505742;28;20049;-75
2023/07/19 09:54:14;;;;;;;4.05;0.60;;;;;;;30.44;29.98;99889.56;10502469;28;20052;-75
2023/07/19 09:59:24;;;;;;;1.83;0.70;;;;;;;30.55;28.88;99885.34;10503575;28;20063;-74
2023/07/19 10:04:28;;;;;;;6.75;0.77;;;;;;;30.43;29.20;99874.88;10500770;28;20240;-74
2023/07/19 10:09:35;;;;;;;3.45;0.60;;;;;;;30.28;28.91;99874.47;10503963;28;20082;-75
2023/07/19 10:14:36;;;;;;;1.65;0.68;;;;;;;30.32;28.87;99878.25;10518576;28;20060;-74
2023/07/19 10:19:38;;;;;;;2.40;0.60;;;;;;;30.21;28.93;99877.66;10499985;28;20375;-75
2023/07/19 10:25:05;;;;;;;5.30;0.80;;;;;;;30.14;28.50;99872.59;10498463;28;20274;-74
2023/07/19 10:30:07;;;;;;;6.32;0.80;;;;;;;30.29;28.60;99871.34;10504838;28;20052;-75
2023/07/19 10:35:32;;;;;;;2.60;0.70;;;;;;;30.26;28.57;99863.69;10501931;28;20123;-76
2023/07/19 10:40:33;;;;;;;3.58;0.68;;;;;;;30.35;28.29;99849.84;10501523;28;20067;-73
2023/07/19 10:45:35;;;;;;;7.47;0.50;;;;;;;30.33;27.98;99855.72;10504333;28;20336;-74
2023/07/19 10:50:38;;;;;;;3.35;0.57;;;;;;;30.29;28.23;99856.66;10503188;28;20091;-74
2023/07/19 10:55:39;;;;;;;0.88;0.40;;;;;;;30.11;28.88;99856.59;10499963;28;20079;-72
2023/07/19 11:00:54;;;;;;;1.58;0.50;;;;;;;29.79;28.62;99863.28;10501601;28;20127;-76
2023/07/19 11:05:58;;;;;;;3.20;0.60;;;;;;;29.80;28.73;99849.09;10505613;28;20044;-75
2023/07/19 11:11:00;;;;;;;2.35;0.60;;;;;;;29.75;29.05;99845.66;10498523;28;20286;-75
2023/07/19 11:16:01;;;;;;;1.77;0.57;;;;;;;29.60;28.75;99842.13;10502548;28;20116;-75
2023/07/19 11:21:03;;;;;;;2.25;0.50;;;;;;;29.49;29.24;99834.38;10501704;28;20068;-75
2023/07/19 11:26:07;;;;;;;2.33;0.50;;;;;;;29.78;28.96;99822.81;10500510;28;20071;-76
2023/07/19 11:31:10;;;;;;;1.95;0.47;;;;;;;29.87;28.69;99826.47;10518618;28;20048;-76
2023/07/19 11:36:12;;;;;;;1.65;0.50;;;;;;;29.97;28.61;99825.38;10497219;28;20064;-75
2023/07/19 11:41:16;;;;;;;1.60;0.57;;;;;;;29.87;28.57;99817.34;10502417;28;20099;-77
2023/07/19 11:46:18;;;;;;;2.63;0.50;;;;;;;30.07;28.05;99829.84;10496543;28;20048;-74
2023/07/19 11:51:19;;;;;;;3.55;1.00;;;;;;;29.80;28.25;99821.41;10498932;28;20033;-75
2023/07/19 11:56:21;;;;;;;3.63;0.65;;;;;;;29.94;27.99;99817.69;10497693;28;20368;-75
2023/07/19 12:01:25;;;;;;;1.17;0.50;;;;;;;30.11;28.11;99822.50;10500181;28;20032;-75
2023/07/19 12:06:27;;;;;;;1.95;0.52;;;;;;;29.97;28.14;99808.75;10526338;28;20051;-75
2023/07/19 12:11:29;;;;;;;1.42;0.65;;;;;;;29.63;28.21;99813.75;10533191;28;20082;-74
2023/07/19 12:16:30;;;;;;;4.07;0.50;;;;;;;29.53;28.67;99825.09;10518626;28;20125;-75
2023/07/19 12:21:31;;;;;;;9.00;0.80;;;;;;;28.67;31.45;99824.06;10510879;28;20063;-76
2023/07/19 12:26:34;;;;;;;2.03;0.65;;;;;;;26.93;37.60;99829.03;10510915;28;20103;-80
2023/07/19 12:31:35;;;;;;;2.15;0.50;;;;;;;26.55;39.79;99820.72;10510739;28;20222;-79
2023/07/19 12:36:37;;;;;;;2.72;0.70;;;;;;;26.98;39.44;99802.22;10493889;28;20103;-78
2023/07/19 12:41:38;;;;;;;3.00;0.60;;;;;;;27.66;39.54;99787.00;10488177;28;20044;-77
2023/07/19 12:46:40;;;;;;;2.78;0.60;;;;;;;28.09;37.86;99800.59;10507600;28;20099;-76
2023/07/19 12:51:46;;;;;;;1.42;0.43;;;;;;;28.33;36.71;99793.25;10510141;28;20052;-74
2023/07/19 12:56:47;;;;;;;2.47;0.52;;;;;;;28.36;36.28;99778.78;10503584;28;20132;-75
2023/07/19 13:01:49;;;;;;;2.90;0.50;;;;;;;28.23;35.67;99780.44;10501026;28;20053;-75
2023/07/19 13:06:54;;;;;;;1.58;0.40;;;;;;;28.00;35.83;99799.69;10503334;28;20040;-75
2023/07/19 13:11:55;;;;;;;3.40;0.70;;;;;;;24.73;48.31;99836.31;10509207;28;20060;-77
2023/07/19 13:16:57;;;;;;;7.30;0.82;;;;;;;22.52;58.03;99790.88;10500624;28;20326;-74
2023/07/19 13:22:18;;;;;;;3.67;0.80;;;;;;;22.82;58.00;99790.13;10502085;28;20082;-73
2023/07/19 13:27:19;;;;;;;6.28;1.50;;;;;;;22.66;61.07;99775.56;10505129;28;20054;-72
2023/07/19 13:32:21;;;;;;;3.22;0.60;;;;;;;22.82;61.15;99764.66;10527146;28;20114;-73
2023/07/19 13:37:23;;;;;;;7.15;1.00;;;;;;;22.91;61.86;99757.56;10525683;28;20081;-71
2023/07/19 13:42:44;;;;;;;1.20;0.60;;;;;;;23.15;60.60;99752.38;10521374;28;20056;-72
2023/07/19 13:47:46;;;;;;;6.00;0.82;;;;;;;23.56;59.36;99755.09;10527828;28;20047;-72
2023/07/19 13:52:47;;;;;;;2.10;0.70;;;;;;;23.94;58.37;99755.56;10527878;28;20063;-73
2023/07/19 13:57:49;;;;;;;2.25;0.70;;;;;;;24.28;57.07;99744.72;10525915;28;20040;-72
2023/07/19 14:02:50;;;;;;;3.10;0.60;;;;;;;24.58;55.63;99761.38;10521950;28;20044;-73
2023/07/19 14:07:52;;;;;;;2.40;0.70;;;;;;;24.52;55.74;99779.81;10529190;28;20051;-73
2023/07/19 14:12:55;;;;;;;2.40;0.50;;;;;;;24.31;53.65;99803.78;10528114;28;20056;-73
2023/07/19 14:18:00;;;;;;;7.83;1.07;;;;;;;23.97;54.14;99804.44;10525515;28;20070;-73
2023/07/19 14:23:02;;;;;;;3.08;0.80;;;;;;;24.06;53.40;99802.75;10527441;28;20261;-74
2023/07/19 14:28:03;;;;;;;2.70;1.02;;;;;;;24.40;52.68;99802.09;10525031;28;20241;-73
2023/07/19 14:33:05;;;;;;;1.20;0.60;;;;;;;24.97;51.92;99791.63;10525724;28;20055;-73
2023/07/19 14:38:06;;;;;;;6.50;1.25;;;;;;;25.84;50.49;99790.91;10526446;28;20040;-72
2023/07/19 14:43:09;;;;;;;5.13;0.80;;;;;;;26.29;49.54;99788.78;10524018;28;20041;-72
2023/07/19 14:48:10;;;;;;;3.05;0.65;;;;;;;26.76;48.43;99793.69;10525538;28;20096;-73
2023/07/19 14:53:12;;;;;;;4.28;1.45;;;;;;;26.79;48.21;99787.59;10524266;28;20103;-73
2023/07/19 14:58:13;;;;;;;2.08;0.98;;;;;;;26.81;47.56;99793.63;10522866;28;20055;-74
2023/07/19 15:03:15;;;;;;;6.95;1.08;;;;;;;27.12;47.11;99779.38;10522263;28;20269;-74
2023/07/19 15:08:29;;;;;;;5.07;1.00;;;;;;;27.02;46.66;99778.41;10522361;28;20051;-72
2023/07/19 15:13:30;;;;;;;4.18;1.20;;;;;;;26.95;47.01;99775.19;10520713;28;20044;-71
2023/07/19 15:18:33;;;;;;;3.75;0.88;;;;;;;26.87;46.96;99778.66;10523543;28;20052;-71
2023/07/19 15:23:35;;;;;;;1.83;0.70;;;;;;;27.03;46.78;99781.97;10518029;28;20417;-72
2023/07/19 15:28:36;;;;;;;5.72;1.10;;;;;;;27.67;46.12;99779.56;10515741;28;20052;-73
2023/07/19 15:33:38;;;;;;;1.10;0.70;;;;;;;28.22;44.82;99778.78;10524159;28;20107;-72
2023/07/19 15:38:46;;;;;;;2.70;0.73;;;;;;;28.54;43.26;99764.06;10529839;28;20048;-71
2023/07/19 15:43:47;;;;;;;2.35;0.70;;;;;;;29.14;41.77;99759.38;10501270;28;20340;-72
2023/07/19 15:48:49;;;;;;;3.20;0.90;;;;;;;29.45;40.96;99762.97;10500181;28;20108;-73
2023/07/19 15:53:50;;;;;;;2.10;0.55;;;;;;;29.62;40.45;99764.22;10501037;28;20361;-73
2023/07/19 15:58:52;;;;;;;1.17;0.50;;;;;;;29.66;40.18;99759.66;10501083;28;20043;-74
2023/07/19 16:03:53;;;;;;;2.10;0.80;;;;;;;30.14;40.34;99764.47;10499980;28;20041;-73
2023/07/19 16:08:54;;;;;;;4.03;0.70;;;;;;;30.32;40.08;99759.00;10500821;28;20067;-70
2023/07/19 16:14:00;;;;;;;2.20;0.75;;;;;;;30.66;39.29;99769.31;10504055;28;20115;-74
2023/07/19 16:19:02;;;;;;;3.08;0.60;;;;;;;30.31;39.49;99765.66;10499637;28;20357;-72
2023/07/19 16:24:04;;;;;;;4.90;0.80;;;;;;;29.57;37.54;99779.03;10498316;28;20063;-73
2023/07/19 16:29:05;;;;;;;1.60;0.80;;;;;;;29.36;36.85;99784.25;10507923;28;20107;-74
2023/07/19 16:34:07;;;;;;;2.92;0.82;;;;;;;29.21;37.39;99795.75;10498752;28;20245;-73
2023/07/19 16:39:08;;;;;;;7.20;1.45;;;;;;;29.01;37.08;99792.28;10500775;28;20111;-73
2023/07/19 16:44:10;;;;;;;3.58;1.10;;;;;;;28.59;37.51;99796.28;10500657;28;20040;-73
2023/07/19 16:49:12;;;;;;;6.15;1.40;;;;;;;28.41;37.91;99801.59;10509535;28;20051;-73
2023/07/19 16:54:13;;;;;;;3.22;1.00;;;;;;;28.13;37.42;99808.28;10511097;28;20349;-72
2023/07/19 16:59:14;;;;;;;4.47;0.80;;;;;;;27.99;37.90;99806.34;10509913;28;20200;-73
2023/07/19 17:04:16;;;;;;;3.72;1.15;;;;;;;27.91;37.45;99817.28;10511250;28;20111;-73
2023/07/19 17:09:17;;;;;;;3.95;0.90;;;;;;;27.75;37.63;99816.72;10506057;28;20048;-72
2023/07/19 17:14:19;;;;;;;4.60;0.90;;;;;;;27.79;37.71;99812.22;10507276;28;20056;-73
2023/07/19 17:19:22;;;;;;;5.97;0.70;;;;;;;27.52;37.55;99813.78;10502417;28;20055;-72
2023/07/19 17:24:23;;;;;;;2.92;0.90;;;;;;;27.23;37.52;99822.22;10510238;28;20371;-72
2023/07/19 17:29:24;;;;;;;6.30;0.90;;;;;;;27.10;37.47;99830.16;10507864;28;20305;-74
2023/07/19 17:34:26;;;;;;;2.15;0.70;;;;;;;26.91;37.35;99843.94;10505822;28;20048;-72
2023/07/19 17:39:28;;;;;;;2.38;0.70;;;;;;;26.88;37.42;99850.06;10506060;28;20098;-73
2023/07/19 17:44:30;;;;;;;1.45;0.50;;;;;;;26.79;37.32;99846.31;10501232;28;20047;-72
2023/07/19 17:49:32;;;;;;;2.63;0.60;;;;;;;26.61;37.29;99847.94;10504333;28;20048;-75
2023/07/19 17:54:33;;;;;;;2.03;0.60;;;;;;;26.67;37.05;99860.53;10514028;28;20071;-71
2023/07/19 17:59:34;;;;;;;2.33;0.50;;;;;;;26.70;36.91;99867.44;10514098;28;20072;-74
2023/07/19 18:04:36;;;;;;;1.63;0.50;;;;;;;26.54;36.66;99869.53;10507635;28;20048;-76
2023/07/19 18:09:38;;;;;;;1.98;0.55;;;;;;;26.59;36.79;99869.47;10508128;28;20432;-74
2023/07/19 18:14:41;;;;;;;1.38;0.50;;;;;;;26.61;36.52;99869.19;10510705;28;20069;-74
2023/07/19 18:19:42;;;;;;;4.28;0.30;;;;;;;26.48;36.52;99865.16;10506739;28;20128;-76
2023/07/19 18:24:45;;;;;;;1.25;0.35;;;;;;;26.55;35.87;99862.88;10505969;28;20058;-74
2023/07/19 18:29:46;;;;;;;1.50;0.30;;;;;;;26.30;35.59;99859.31;10505443;28;20064;-73
2023/07/19 18:34:47;;;;;;;2.25;0.40;;;;;;;26.17;35.33;99861.97;10504356;28;20054;-73
2023/07/19 18:39:49;;;;;;;0.77;0.30;;;;;;;26.15;34.81;99865.00;10502291;28;20104;-73
2023/07/19 18:44:50;;;;;;;2.40;0.30;;;;;;;26.20;34.89;99859.41;10507371;28;20071;-73
2023/07/19 18:49:52;;;;;;;3.83;0.20;;;;;;;26.06;34.75;99862.03;10511886;28;20044;-72
2023/07/19 18:54:53;;;;;;;0.88;0.20;;;;;;;25.92;34.61;99861.91;10483527;28;20100;-74
2023/07/19 18:59:55;;;;;;;2.22;0.35;;;;;;;25.81;34.58;99863.09;10510746;28;20051;-75
2023/07/19 19:04:56;;;;;;;1.17;0.30;;;;;;;25.79;34.75;99879.09;10517648;28;20051;-74
2023/07/19 19:09:58;;;;;;;0.80;0.20;;;;;;;25.64;34.56;99882.78;10506641;28;20048;-75
2023/07/19 19:14:59;;;;;;;0.65;0.22;;;;;;;25.71;34.23;99885.19;10493514;28;20044;-74
2023/07/19 19:20:01;;;;;;;1.80;0.22;;;;;;;25.68;34.34;99889.34;10497526;28;20360;-74
2023/07/19 19:25:04;;;;;;;2.15;0.30;;;;;;;25.58;34.88;99902.41;10492141;28;20102;-76
2023/07/19 19:30:07;;;;;;;1.05;0.20;;;;;;;25.25;34.93;99907.56;10514388;28;20294;-74
2023/07/19 19:35:08;;;;;;;0.60;0.15;;;;;;;25.04;35.12;99932.41;10492496;28;20105;-75
2023/07/19 19:40:10;;;;;;;0.95;0.22;;;;;;;24.96;35.37;99929.41;10499106;28;20055;-75
2023/07/19 19:45:12;;;;;;;0.50;0.20;;;;;;;24.78;35.50;99941.88;10498352;28;20041;-76
2023/07/19 19:50:13;;;;;;;2.78;0.20;;;;;;;24.62;35.91;99939.16;10494828;28;20069;-74
2023/07/19 19:55:15;;;;;;;1.17;0.10;;;;;;;24.47;36.23;99944.69;10494734;28;20060;-74
2023/07/19 20:00:16;;;;;;;1.30;0.30;;;;;;;24.49;36.21;99948.78;10497108;28;20147;-74
2023/07/19 20:05:21;;;;;;;1.10;0.17;;;;;;;24.44;36.17;99942.47;10493683;28;20383;-74
2023/07/19 20:10:25;;;;;;;1.90;0.20;;;;;;;24.53;36.40;99960.91;10494631;28;20084;-73
2023/07/19 20:15:27;;;;;;;0.90;0.20;;;;;;;24.34;36.88;99960.63;10494065;28;20064;-75
2023/07/19 20:20:28;;;;;;;2.00;0.35;;;;;;;24.31;37.45;99974.13;10499345;28;20345;-75
2023/07/19 20:25:32;;;;;;;3.40;0.20;;;;;;;24.27;37.48;99978.50;10500076;28;20049;-72
2023/07/19 20:30:54;;;;;;;3.08;0.20;;;;;;;24.24;37.53;99976.31;10501911;28;20269;-74
2023/07/19 20:35:56;;;;;;;0.50;0.32;;;;;;;24.09;38.12;99964.25;10511569;28;20082;-75
2023/07/19 20:41:02;;;;;;;0.40;0.15;;;;;;;23.95;38.20;99968.63;10508705;28;20060;-76
2023/07/19 20:46:07;;;;;;;1.33;0.30;;;;;;;23.82;38.74;99970.00;10506717;28;20123;-75
2023/07/19 20:51:13;;;;;;;0.60;0.30;;;;;;;23.89;39.11;99978.78;10508527;28;20048;-74
2023/07/19 20:56:14;;;;;;;1.13;0.30;;;;;;;23.80;39.04;99980.44;10510791;28;20041;-74
2023/07/19 21:01:15;;;;;;;0.75;0.22;;;;;;;23.50;40.21;99987.50;10504359;28;20102;-74
2023/07/19 21:06:17;;;;;;;0.35;0.20;;;;;;;23.56;39.95;99985.59;10485547;28;20052;-75
2023/07/19 21:11:19;;;;;;;0.50;0.30;;;;;;;23.55;40.47;99984.75;10505939;28;20104;-73
2023/07/19 21:16:20;;;;;;;1.95;0.25;;;;;;;23.62;40.48;99992.72;10508080;28;20048;-75
2023/07/19 21:21:22;;;;;;;1.10;0.30;;;;;;;23.54;40.70;99991.34;10505317;28;20106;-74
2023/07/19 21:26:24;;;;;;;2.70;0.50;;;;;;;23.43;41.07;99995.16;10506262;28;20048;-75
2023/07/19 21:31:28;;;;;;;1.52;0.30;;;;;;;23.20;41.61;100006.59;10508110;28;20108;-75
2023/07/19 21:36:30;;;;;;;1.20;0.50;;;;;;;23.24;41.61;100002.22;10503545;28;20052;-76
2023/07/19 21:41:31;;;;;;;2.47;0.30;;;;;;;23.30;41.63;100006.63;10505717;28;20032;-74
2023/07/19 21:46:33;;;;;;;1.40;0.43;;;;;;;23.25;41.76;99999.22;10501440;28;20344;-74
2023/07/19 21:51:34;;;;;;;2.10;0.40;;;;;;;23.27;41.78;100013.47;10507067;28;20112;-72
2023/07/19 21:56:36;;;;;;;1.40;0.30;;;;;;;23.10;41.89;100016.41;10503899;28;20123;-72
2023/07/19 22:01:38;;;;;;;2.83;0.60;;;;;;;23.04;42.36;100022.97;10502234;28;20052;-71
2023/07/19 22:06:39;;;;;;;2.42;0.82;;;;;;;23.09;42.25;100012.03;10505045;28;20052;-72
2023/07/19 22:11:41;;;;;;;1.50;0.43;;;;;;;23.07;42.35;100016.13;10504319;28;20041;-71
2023/07/19 22:16:43;;;;;;;1.15;0.45;;;;;;;22.94;42.48;100020.97;10503045;28;20113;-71
2023/07/19 22:21:45;;;;;;;3.13;0.77;;;;;;;22.89;42.97;100023.69;10504101;28;20044;-70
2023/07/19 22:26:47;;;;;;;2.45;0.30;;;;;;;22.81;43.05;100015.97;10508494;28;20056;-72
2023/07/19 22:31:48;;;;;;;2.15;0.40;;;;;;;22.90;42.83;100025.31;10500414;28;20082;-72
2023/07/19 22:36:49;;;;;;;0.90;0.30;;;;;;;22.74;43.33;100024.41;10502329;28;20067;-72
2023/07/19 22:41:51;;;;;;;4.82;0.45;;;;;;;22.72;43.17;100034.81;10503887;28;20055;-72
2023/07/19 22:46:52;;;;;;;2.17;0.40;;;;;;;22.75;43.11;100028.00;10499772;28;20360;-73
2023/07/19 22:51:54;;;;;;;1.75;0.50;;;;;;;22.72;43.04;100031.25;10502234;28;20127;-72
2023/07/19 22:56:55;;;;;;;1.10;0.30;;;;;;;22.72;43.44;100037.56;10503016;28;20097;-70
2023/07/19 23:01:57;;;;;;;3.88;0.32;;;;;;;22.73;43.12;100032.94;10502328;28;20060;-69
2023/07/19 23:07:00;;;;;;;2.05;0.55;;;;;;;22.74;43.17;100029.09;10499976;28;20628;-71
2023/07/19 23:12:02;;;;;;;1.48;0.40;;;;;;;22.75;42.95;100039.78;10501896;28;20322;-71
2023/07/19 23:17:03;;;;;;;1.85;0.40;;;;;;;22.67;43.00;100034.81;10504334;28;20044;-71